Time;durP1;ratioP1;P1;durP2;ratioP2;P2;SDS_P1;SDS_P2;PMS_P1;PMS_P2;Temp;Humidity;BMP_temperature;BMP_pressure;BME280_temperature;BME280_humidity;BME280_pressure;Samples;Min_cycle;Max_cycle;Signal;HPM_P1;HPM_P2
2021/01/16 00:00:53;;;;;;;13.50;5.13;;;2.70;91.00;;;;;;5077615;28;20339;-69
2021/01/16 00:03:19;;;;;;;9.02;4.82;;;2.60;91.00;;;;;;5078237;28;20029;-68
2021/01/16 00:05:46;;;;;;;10.88;5.00;;;2.60;91.10;;;;;;5077575;27;20090;-69
2021/01/16 00:08:14;;;;;;;9.27;4.75;;;2.50;91.10;;;;;;5076436;28;20091;-70
2021/01/16 00:10:52;;;;;;;9.88;4.35;;;2.50;91.20;;;;;;5077130;28;20086;-68
2021/01/16 00:13:20;;;;;;;11.82;4.88;;;2.50;91.30;;;;;;5073765;28;20036;-69
2021/01/16 00:15:46;;;;;;;;;;;2.60;91.30;;;;;;5075057;28;20086;-69
2021/01/16 00:18:14;;;;;;;6.75;4.35;;;2.60;91.20;;;;;;5075810;28;20314;-69
2021/01/16 00:20:46;;;;;;;12.68;4.93;;;2.60;91.10;;;;;;5074131;28;20028;-69
2021/01/16 00:23:11;;;;;;;19.40;5.88;;;2.70;91.10;;;;;;5074244;28;20083;-70
2021/01/16 00:25:37;;;;;;;15.63;5.03;;;2.60;90.80;;;;;;5071956;28;20056;-69
2021/01/16 00:28:04;;;;;;;9.45;4.97;;;2.70;90.80;;;;;;5074031;28;20028;-69
2021/01/16 00:30:32;;;;;;;9.55;4.88;;;2.80;90.80;;;;;;5073170;28;20408;-69
2021/01/16 00:32:58;;;;;;;;;;;2.80;90.70;;;;;;5076036;28;20073;-69
2021/01/16 00:35:26;;;;;;;10.65;5.35;;;2.70;90.00;;;;;;5073399;28;19917;-68
2021/01/16 00:37:52;;;;;;;10.80;5.70;;;2.60;88.60;;;;;;5073556;28;20174;-68
2021/01/16 00:40:27;;;;;;;9.38;5.15;;;2.50;87.60;;;;;;5073659;28;20143;-69
2021/01/16 00:42:54;;;;;;;8.88;4.78;;;2.50;87.00;;;;;;5073720;28;20044;-68
2021/01/16 00:45:21;;;;;;;7.72;4.20;;;2.60;85.90;;;;;;5075161;28;20099;-69
2021/01/16 00:47:48;;;;;;;7.70;4.03;;;2.40;85.20;;;;;;5073692;28;20067;-69
2021/01/16 00:50:16;;;;;;;6.13;2.90;;;2.40;84.80;;;;;;5073710;28;20406;-69
2021/01/16 00:52:41;;;;;;;7.43;2.75;;;2.30;82.00;;;;;;5073581;28;20078;-68
2021/01/16 00:55:09;;;;;;;6.13;2.90;;;2.30;82.50;;;;;;5073254;28;20079;-68
2021/01/16 00:57:35;;;;;;;5.82;2.60;;;2.40;82.60;;;;;;5073368;28;20062;-69
2021/01/16 01:00:06;;;;;;;5.90;3.13;;;2.00;81.00;;;;;;5075067;28;20047;-69
2021/01/16 01:02:34;;;;;;;4.63;2.65;;;1.90;81.70;;;;;;5072743;28;20048;-69
2021/01/16 01:04:59;;;;;;;4.82;3.00;;;2.10;82.30;;;;;;5073498;28;20123;-68
2021/01/16 01:07:25;;;;;;;6.75;3.22;;;2.20;82.90;;;;;;5073398;28;20498;-69
2021/01/16 01:09:51;;;;;;;6.47;3.65;;;2.20;82.00;;;;;;5073076;28;20127;-70
2021/01/16 01:12:16;;;;;;;4.85;3.30;;;2.30;83.20;;;;;;5074848;28;20028;-69
2021/01/16 01:14:42;;;;;;;4.47;3.17;;;2.40;82.60;;;;;;5073214;28;20040;-69
2021/01/16 01:17:18;;;;;;;5.80;3.05;;;2.40;82.60;;;;;;5073251;28;20454;-68
2021/01/16 01:19:44;;;;;;;7.32;3.60;;;2.20;81.90;;;;;;5072336;28;20056;-68
2021/01/16 01:22:10;;;;;;;6.07;3.53;;;2.10;82.00;;;;;;5073126;28;20115;-69
2021/01/16 01:24:37;;;;;;;7.00;3.38;;;2.00;82.70;;;;;;5072589;28;20123;-69
2021/01/16 01:27:04;;;;;;;7.10;3.60;;;2.10;83.10;;;;;;5074378;28;20398;-69
2021/01/16 01:29:29;;;;;;;5.25;3.35;;;2.20;82.60;;;;;;5072926;28;20064;-69
2021/01/16 01:31:55;;;;;;;6.03;3.75;;;2.30;82.20;;;;;;5072794;28;20363;-69
2021/01/16 01:34:21;;;;;;;6.35;3.42;;;2.30;81.30;;;;;;5072644;28;20040;-69
2021/01/16 01:36:46;;;;;;;5.57;3.25;;;2.20;81.60;;;;;;5072831;28;20470;-68
2021/01/16 01:39:12;;;;;;;7.88;3.67;;;2.20;81.70;;;;;;5074022;28;20041;-69
2021/01/16 01:41:38;;;;;;;7.00;4.15;;;2.30;82.00;;;;;;5072576;28;20032;-69
2021/01/16 01:44:05;;;;;;;8.45;4.20;;;2.40;82.20;;;;;;5071906;28;20032;-68
2021/01/16 01:46:31;;;;;;;7.82;4.03;;;2.20;81.90;;;;;;5072583;28;20048;-69
2021/01/16 01:48:59;;;;;;;6.45;3.95;;;2.30;82.10;;;;;;5072692;28;20029;-68
2021/01/16 01:51:26;;;;;;;6.35;3.60;;;2.30;81.90;;;;;;5073970;28;20082;-69
2021/01/16 01:53:55;;;;;;;7.82;3.80;;;2.20;81.80;;;;;;5052377;28;20384;-69
2021/01/16 01:56:24;;;;;;;6.70;4.03;;;2.20;82.00;;;;;;5052609;28;20044;-69
2021/01/16 01:58:55;;;;;;;7.60;4.32;;;2.20;81.90;;;;;;5051542;28;20033;-68
2021/01/16 02:01:22;;;;;;;7.22;4.03;;;2.20;81.70;;;;;;5059768;28;20036;-68
2021/01/16 02:03:48;;;;;;;6.72;4.30;;;2.10;81.90;;;;;;5072320;28;20081;-68
2021/01/16 02:06:17;;;;;;;8.63;4.18;;;2.20;82.10;;;;;;5073842;28;20529;-68
2021/01/16 02:08:44;;;;;;;7.25;3.92;;;2.30;81.70;;;;;;5053831;28;20037;-68
2021/01/16 02:11:11;;;;;;;8.52;4.13;;;2.30;81.50;;;;;;5052377;28;20517;-69
2021/01/16 02:13:37;;;;;;;10.10;4.15;;;2.30;81.80;;;;;;5052096;28;20036;-70
2021/01/16 02:16:17;;;;;;;7.35;4.40;;;2.30;82.10;;;;;;5052006;28;20033;-68
2021/01/16 02:18:46;;;;;;;9.25;4.18;;;2.40;82.20;;;;;;5052097;28;20108;-69
2021/01/16 02:21:22;;;;;;;8.75;4.28;;;2.30;82.00;;;;;;5053614;28;20024;-68
2021/01/16 02:23:56;;;;;;;8.13;4.57;;;2.30;82.00;;;;;;5051932;28;20037;-68
2021/01/16 02:26:44;;;;;;;5.97;3.50;;;2.30;82.20;;;;;;5067835;28;20478;-68
2021/01/16 02:29:10;;;;;;;;;;;2.40;81.40;;;;;;5072346;28;20063;-69
2021/01/16 02:31:42;;;;;;;7.80;4.20;;;2.40;81.80;;;;;;5071779;28;19912;-67
2021/01/16 02:34:13;;;;;;;7.38;4.00;;;2.50;81.90;;;;;;5071010;28;20132;-68
2021/01/16 02:36:54;;;;;;;7.40;3.70;;;2.50;82.10;;;;;;5071871;28;20036;-68
2021/01/16 02:39:35;;;;;;;6.43;3.35;;;2.50;82.10;;;;;;5073128;28;20053;-68
2021/01/16 02:42:08;;;;;;;8.05;3.83;;;2.50;82.00;;;;;;5072108;28;20111;-68
2021/01/16 02:44:33;;;;;;;8.60;4.10;;;2.50;81.90;;;;;;5071718;28;20029;-69
2021/01/16 02:47:04;;;;;;;7.07;3.88;;;2.50;82.10;;;;;;5071573;28;20029;-69
2021/01/16 02:49:29;;;;;;;7.47;3.75;;;2.50;82.40;;;;;;5071286;28;20025;-68
2021/01/16 02:52:05;;;;;;;7.28;4.07;;;2.50;82.60;;;;;;5071546;28;20040;-69
2021/01/16 02:54:39;;;;;;;7.03;3.97;;;2.40;82.40;;;;;;5071439;28;20140;-69
2021/01/16 02:57:07;;;;;;;5.88;3.45;;;2.50;82.80;;;;;;5073255;28;20021;-68
2021/01/16 02:59:40;;;;;;;8.98;3.83;;;2.50;82.80;;;;;;5071656;28;20039;-68
2021/01/16 03:02:07;;;;;;;6.00;3.53;;;2.40;82.80;;;;;;5071661;28;20032;-68
2021/01/16 03:04:34;;;;;;;7.10;3.92;;;2.40;82.90;;;;;;5071563;28;20126;-68
2021/01/16 03:07:01;;;;;;;6.85;3.70;;;2.40;83.00;;;;;;5071517;28;20036;-69
2021/01/16 03:09:29;;;;;;;6.93;3.63;;;2.40;83.20;;;;;;5073064;28;20032;-68
2021/01/16 03:11:56;;;;;;;8.98;4.32;;;2.50;83.40;;;;;;5072058;28;20028;-68
2021/01/16 03:14:24;;;;;;;7.18;3.72;;;2.50;83.30;;;;;;5071464;28;20099;-68
2021/01/16 03:17:01;;;;;;;7.47;4.40;;;2.50;83.30;;;;;;5070440;28;20177;-68
2021/01/16 03:19:31;;;;;;;5.85;3.78;;;2.60;83.00;;;;;;5070507;28;20397;-69
2021/01/16 03:21:56;;;;;;;5.80;3.90;;;2.50;82.40;;;;;;5071116;28;20458;-69
2021/01/16 03:24:22;;;;;;;10.27;4.28;;;2.50;82.90;;;;;;5071909;28;20052;-68
2021/01/16 03:26:48;;;;;;;6.38;4.00;;;2.50;83.30;;;;;;5070106;28;20378;-68
2021/01/16 03:29:13;;;;;;;9.93;4.07;;;2.50;83.30;;;;;;5071443;28;20040;-67
2021/01/16 03:31:39;;;;;;;7.15;4.13;;;2.50;83.80;;;;;;5071315;28;20074;-68
2021/01/16 03:34:05;;;;;;;9.13;4.00;;;2.50;82.90;;;;;;5071121;28;20137;-68
2021/01/16 03:36:30;;;;;;;6.60;3.72;;;2.60;83.00;;;;;;5071177;28;20258;-68
2021/01/16 03:38:56;;;;;;;8.48;3.90;;;2.40;83.30;;;;;;5072633;28;20040;-68
2021/01/16 03:41:22;;;;;;;7.97;3.97;;;2.40;83.50;;;;;;5071190;28;20457;-68
2021/01/16 03:43:47;;;;;;;9.80;3.88;;;2.40;83.80;;;;;;5071383;28;20097;-68
2021/01/16 03:46:13;;;;;;;7.32;3.65;;;2.30;84.00;;;;;;5072664;28;20114;-69
2021/01/16 03:48:40;;;;;;;7.40;3.95;;;2.30;84.00;;;;;;5074727;28;20021;-68
2021/01/16 03:51:06;;;;;;;7.78;3.80;;;2.30;84.00;;;;;;5076534;28;20030;-69
2021/01/16 03:53:32;;;;;;;6.60;3.83;;;2.20;83.90;;;;;;5074502;28;20033;-68
2021/01/16 03:55:58;;;;;;;7.93;4.20;;;2.20;83.90;;;;;;5074469;28;20094;-68
2021/01/16 03:58:24;;;;;;;12.30;4.30;;;2.20;84.00;;;;;;5074572;28;20029;-68
2021/01/16 04:00:49;;;;;;;5.65;3.70;;;2.20;84.10;;;;;;5074384;28;20025;-69
2021/01/16 04:03:15;;;;;;;6.75;3.47;;;2.30;84.20;;;;;;5076131;28;20031;-69
2021/01/16 04:05:41;;;;;;;7.00;3.83;;;2.30;84.20;;;;;;5074658;28;20032;-68
2021/01/16 04:08:06;;;;;;;8.82;3.60;;;2.40;84.50;;;;;;5074783;28;20037;-68
2021/01/16 04:10:32;;;;;;;7.80;3.72;;;2.40;84.30;;;;;;5074341;28;20052;-68
2021/01/16 04:12:57;;;;;;;9.32;4.10;;;2.50;84.50;;;;;;5073381;28;20036;-69
2021/01/16 04:15:23;;;;;;;7.60;4.22;;;2.40;84.60;;;;;;5075797;28;20386;-69
2021/01/16 04:17:49;;;;;;;8.13;3.83;;;2.40;84.70;;;;;;5074144;28;20032;-69
2021/01/16 04:20:14;;;;;;;7.70;3.75;;;2.40;84.70;;;;;;5074328;28;20033;-69
2021/01/16 04:22:40;;;;;;;13.55;4.35;;;2.30;84.90;;;;;;5074254;28;20079;-68
2021/01/16 04:25:06;;;;;;;9.68;4.45;;;2.40;85.00;;;;;;5074161;28;20029;-68
2021/01/16 04:27:33;;;;;;;8.50;4.30;;;2.40;85.40;;;;;;5074079;28;20032;-69
2021/01/16 04:30:00;;;;;;;8.27;4.45;;;2.30;85.60;;;;;;5075485;28;20396;-69
2021/01/16 04:32:26;;;;;;;10.03;5.07;;;2.20;85.90;;;;;;5074152;28;20028;-68
2021/01/16 04:34:52;;;;;;;10.48;4.78;;;2.20;86.20;;;;;;5073925;28;20327;-68
2021/01/16 04:37:18;;;;;;;7.85;4.50;;;2.30;86.40;;;;;;5074049;28;20036;-69
2021/01/16 04:39:43;;;;;;;9.43;4.55;;;2.40;86.20;;;;;;5073758;28;20059;-68
2021/01/16 04:42:13;;;;;;;10.65;4.60;;;2.40;86.10;;;;;;5075558;28;20025;-68
2021/01/16 04:44:42;;;;;;;6.53;4.28;;;2.40;86.30;;;;;;5073508;28;20374;-68
2021/01/16 04:47:18;;;;;;;8.80;4.75;;;2.30;86.50;;;;;;5073786;28;20110;-68
2021/01/16 04:49:44;;;;;;;9.05;4.40;;;2.30;86.40;;;;;;5073774;28;20044;-69
2021/01/16 04:52:11;;;;;;;7.22;3.95;;;2.40;86.30;;;;;;5072493;28;20362;-69
2021/01/16 04:54:40;;;;;;;10.98;4.50;;;2.50;86.30;;;;;;5073615;28;20043;-68
2021/01/16 04:57:06;;;;;;;10.45;4.47;;;2.40;86.50;;;;;;5074767;28;20099;-69
2021/01/16 04:59:34;;;;;;;9.02;3.92;;;2.40;86.60;;;;;;5073236;28;20029;-68
2021/01/16 05:02:06;;;;;;;11.73;4.70;;;2.50;86.40;;;;;;5073188;28;20055;-67
2021/01/16 05:04:34;;;;;;;8.48;4.47;;;2.50;86.10;;;;;;5073740;28;20075;-68
2021/01/16 05:07:01;;;;;;;10.25;4.65;;;2.50;86.20;;;;;;5073482;28;20031;-68
2021/01/16 05:09:28;;;;;;;11.07;5.07;;;2.50;85.70;;;;;;5073985;28;20071;-69
2021/01/16 05:12:06;;;;;;;11.18;4.55;;;2.60;86.20;;;;;;5073710;28;20021;-68
2021/01/16 05:14:48;;;;;;;9.43;4.93;;;2.60;86.40;;;;;;5073189;28;20049;-68
2021/01/16 05:17:15;;;;;;;10.02;4.50;;;2.60;86.30;;;;;;5073187;28;20040;-69
2021/01/16 05:19:41;;;;;;;12.85;5.00;;;2.70;86.70;;;;;;5073294;28;20228;-69
2021/01/16 05:22:07;;;;;;;20.55;5.57;;;2.60;86.80;;;;;;5071871;28;20362;-69
2021/01/16 05:24:33;;;;;;;10.60;4.95;;;2.60;87.00;;;;;;5071870;28;20032;-67
2021/01/16 05:27:06;;;;;;;12.35;5.90;;;2.60;87.40;;;;;;5074368;28;20096;-67
2021/01/16 05:29:34;;;;;;;9.88;5.32;;;2.50;87.20;;;;;;5072651;28;20040;-67
2021/01/16 05:32:00;;;;;;;;;;;2.40;87.80;;;;;;5072616;28;20036;-68
2021/01/16 05:34:28;;;;;;;9.45;4.95;;;2.50;88.00;;;;;;5071598;28;19924;-68
2021/01/16 05:36:55;;;;;;;11.68;4.97;;;2.40;87.80;;;;;;5072692;28;20028;-67
2021/01/16 05:39:27;;;;;;;10.98;5.50;;;2.40;88.10;;;;;;5074140;28;20040;-68
2021/01/16 05:41:58;;;;;;;12.75;5.45;;;2.40;88.10;;;;;;5072953;28;20041;-68
2021/01/16 05:44:26;;;;;;;14.13;5.25;;;2.50;88.10;;;;;;5072731;28;20037;-67
2021/01/16 05:46:52;;;;;;;14.80;5.50;;;2.50;88.10;;;;;;5072761;28;20047;-69
2021/01/16 05:49:22;;;;;;;11.60;5.22;;;2.50;88.00;;;;;;5071549;28;20134;-69
2021/01/16 05:51:49;;;;;;;9.27;5.22;;;2.50;87.60;;;;;;5072856;28;20040;-69
2021/01/16 05:54:18;;;;;;;9.80;5.40;;;2.40;87.40;;;;;;5073792;28;20067;-69
2021/01/16 05:56:45;;;;;;;8.68;5.13;;;2.50;87.40;;;;;;5072594;28;20032;-69
2021/01/16 05:59:15;;;;;;;11.25;6.07;;;2.40;87.50;;;;;;5058399;28;20025;-68
2021/01/16 06:01:44;;;;;;;12.25;5.18;;;2.40;87.60;;;;;;5052457;28;20242;-69
2021/01/16 06:04:23;;;;;;;8.70;4.88;;;2.50;87.50;;;;;;5057922;28;20363;-68
2021/01/16 06:06:49;;;;;;;9.75;5.10;;;2.50;87.10;;;;;;5072061;28;20032;-68
2021/01/16 06:09:17;;;;;;;12.32;6.15;;;2.50;87.30;;;;;;5072961;28;20051;-68
2021/01/16 06:11:50;;;;;;;11.07;5.30;;;2.50;87.20;;;;;;5072157;28;20033;-69
2021/01/16 06:14:17;;;;;;;11.88;5.35;;;2.50;87.30;;;;;;5070807;28;20039;-68
2021/01/16 06:16:54;;;;;;;10.57;5.00;;;2.30;87.70;;;;;;5072235;28;20466;-69
2021/01/16 06:19:22;;;;;;;11.35;4.93;;;2.40;87.60;;;;;;5071966;28;20112;-68
2021/01/16 06:21:48;;;;;;;9.07;5.18;;;2.20;87.60;;;;;;5071949;28;20473;-69
2021/01/16 06:24:18;;;;;;;11.23;5.05;;;2.20;87.70;;;;;;5072467;28;20350;-69
2021/01/16 06:26:52;;;;;;;9.45;4.72;;;2.20;87.70;;;;;;5071874;28;20415;-70
2021/01/16 06:29:28;;;;;;;8.93;4.95;;;2.30;87.80;;;;;;5071252;28;20411;-72
2021/01/16 06:32:05;;;;;;;8.52;4.68;;;2.30;87.30;;;;;;5070785;28;20037;-69
2021/01/16 06:34:33;;;;;;;7.90;4.68;;;2.30;87.10;;;;;;5070632;28;20040;-69
2021/01/16 06:37:07;;;;;;;11.23;4.70;;;2.30;87.40;;;;;;5071802;28;20037;-69
2021/01/16 06:39:35;;;;;;;7.90;4.72;;;2.20;87.20;;;;;;5070642;28;20044;-69
2021/01/16 06:42:12;;;;;;;12.63;4.95;;;2.20;87.20;;;;;;5073455;28;20025;-69
2021/01/16 06:44:39;;;;;;;9.47;5.13;;;2.10;87.00;;;;;;5071489;28;20028;-69
2021/01/16 06:47:07;;;;;;;11.13;5.43;;;2.20;87.10;;;;;;5070475;28;20059;-69
2021/01/16 06:49:34;;;;;;;13.05;5.45;;;2.20;87.10;;;;;;5071600;28;20411;-69
2021/01/16 06:52:07;;;;;;;12.38;4.65;;;2.40;87.10;;;;;;5071686;28;20039;-71
2021/01/16 06:54:35;;;;;;;10.57;4.82;;;2.30;87.50;;;;;;5070550;28;20080;-68
2021/01/16 06:57:14;;;;;;;8.85;5.18;;;2.30;87.10;;;;;;5071990;28;20028;-69
2021/01/16 06:59:44;;;;;;;14.20;5.15;;;2.20;86.90;;;;;;5070242;28;20402;-69
2021/01/16 07:02:21;;;;;;;9.93;4.90;;;2.30;87.00;;;;;;5071346;28;20081;-69
2021/01/16 07:04:55;;;;;;;11.63;5.47;;;2.20;87.10;;;;;;5071579;28;20028;-69
2021/01/16 07:07:28;;;;;;;9.18;4.80;;;2.20;87.20;;;;;;5070392;28;20039;-69
2021/01/16 07:10:00;;;;;;;13.88;5.35;;;2.20;87.40;;;;;;5071292;28;20024;-68
2021/01/16 07:12:27;;;;;;;11.05;5.32;;;2.00;87.50;;;;;;5072797;28;20025;-68
2021/01/16 07:14:53;;;;;;;9.73;5.05;;;2.00;87.70;;;;;;5071577;28;20043;-68
2021/01/16 07:17:25;;;;;;;10.80;5.15;;;1.90;87.90;;;;;;5071255;28;20369;-68
2021/01/16 07:19:51;;;;;;;12.50;5.68;;;1.90;88.10;;;;;;5071477;28;20029;-68
2021/01/16 07:22:17;;;;;;;13.57;5.43;;;1.80;88.10;;;;;;5074417;28;20040;-69
2021/01/16 07:24:44;;;;;;;10.15;5.07;;;1.80;88.30;;;;;;5075745;28;20096;-68
2021/01/16 07:27:13;;;;;;;9.63;5.07;;;1.90;88.30;;;;;;5076882;28;20021;-68
2021/01/16 07:29:42;;;;;;;10.18;5.05;;;1.90;88.20;;;;;;5073967;28;20028;-69
2021/01/16 07:32:15;;;;;;;9.98;5.30;;;1.90;88.30;;;;;;5074576;28;20076;-69
2021/01/16 07:34:47;;;;;;;10.10;5.32;;;1.90;88.30;;;;;;5074882;28;20123;-69
2021/01/16 07:37:14;;;;;;;10.05;4.68;;;1.90;88.20;;;;;;5075143;28;20025;-69
2021/01/16 07:39:43;;;;;;;16.88;5.97;;;1.90;88.30;;;;;;5074923;28;20032;-69
2021/01/16 07:42:14;;;;;;;10.63;5.45;;;1.90;88.50;;;;;;5076622;28;20146;-67
2021/01/16 07:44:46;;;;;;;8.82;4.97;;;2.00;88.40;;;;;;5074688;28;20029;-69
2021/01/16 07:47:20;;;;;;;17.05;6.57;;;1.90;88.20;;;;;;5073445;28;20029;-70
2021/01/16 07:49:57;;;;;;;10.80;5.65;;;2.00;88.60;;;;;;5074809;28;20090;-73
2021/01/16 07:52:27;;;;;;;12.63;5.00;;;2.00;88.60;;;;;;5074702;28;20055;-70
2021/01/16 07:55:07;;;;;;;12.13;5.40;;;2.00;88.50;;;;;;5074604;28;20343;-68
2021/01/16 07:57:34;;;;;;;11.30;5.55;;;2.10;88.50;;;;;;5074725;28;20144;-69
2021/01/16 08:00:09;;;;;;;14.00;5.18;;;2.10;88.30;;;;;;5076045;28;20107;-70
2021/01/16 08:02:43;;;;;;;12.93;6.10;;;2.20;87.90;;;;;;5074412;28;20098;-69
2021/01/16 08:05:24;;;;;;;8.93;5.07;;;2.10;87.10;;;;;;5074687;28;20059;-70
2021/01/16 08:08:09;;;;;;;10.52;5.75;;;2.20;87.40;;;;;;5074520;28;20043;-69
2021/01/16 08:10:36;;;;;;;11.93;5.07;;;2.20;87.60;;;;;;5074375;28;20033;-71
2021/01/16 08:13:09;;;;;;;12.07;6.03;;;2.20;87.30;;;;;;5074106;28;20458;-83
2021/01/16 08:15:39;;;;;;;14.82;6.13;;;2.20;87.30;;;;;;5074329;28;20103;-70
2021/01/16 08:18:09;;;;;;;8.45;5.13;;;2.30;87.20;;;;;;5075798;28;20400;-68
2021/01/16 08:20:39;;;;;;;11.57;5.75;;;2.30;87.00;;;;;;5073292;28;20125;-70
2021/01/16 08:23:06;;;;;;;13.52;6.07;;;2.20;86.00;;;;;;5073299;28;20029;-69
2021/01/16 08:25:32;;;;;;;10.77;5.15;;;2.40;87.10;;;;;;5074506;28;20033;-69
2021/01/16 08:28:04;;;;;;;9.70;5.47;;;2.50;87.20;;;;;;5074187;28;20040;-71
2021/01/16 08:30:34;;;;;;;17.27;7.05;;;2.50;86.80;;;;;;5073965;28;20028;-68
2021/01/16 08:33:05;;;;;;;9.82;5.78;;;2.40;86.70;;;;;;5073312;28;20074;-71
2021/01/16 08:35:39;;;;;;;10.65;5.70;;;2.40;86.60;;;;;;5073869;28;20128;-70
2021/01/16 08:38:17;;;;;;;17.77;6.78;;;2.40;86.60;;;;;;5073590;28;20048;-69
2021/01/16 08:41:06;;;;;;;13.30;5.72;;;2.50;86.60;;;;;;5072900;28;20124;-71
2021/01/16 08:43:43;;;;;;;13.80;6.25;;;2.60;87.00;;;;;;5073704;28;20454;-70
2021/01/16 08:46:32;;;;;;;13.88;5.75;;;2.50;86.80;;;;;;5073884;28;20044;-71
2021/01/16 08:49:17;;;;;;;12.18;5.95;;;2.60;85.70;;;;;;5072503;28;20032;-71
2021/01/16 08:51:52;;;;;;;15.95;5.82;;;2.60;84.90;;;;;;5073747;28;20331;-71
2021/01/16 08:54:20;;;;;;;11.70;5.35;;;2.50;84.20;;;;;;5075024;28;20043;-72
2021/01/16 08:56:58;;;;;;;9.80;5.63;;;2.60;84.40;;;;;;5073210;28;20044;-70
2021/01/16 08:59:30;;;;;;;13.60;5.82;;;2.60;84.70;;;;;;5072240;28;20082;-70
2021/01/16 09:02:17;;;;;;;13.30;6.00;;;2.60;84.00;;;;;;5073183;28;20028;-69
2021/01/16 09:04:45;;;;;;;12.60;5.75;;;2.60;84.00;;;;;;5073735;28;20043;-70
2021/01/16 09:07:22;;;;;;;8.85;5.05;;;2.60;83.80;;;;;;5072457;28;20028;-70
2021/01/16 09:10:02;;;;;;;9.63;5.68;;;2.50;83.70;;;;;;5071103;28;29276;-70
2021/01/16 09:12:37;;;;;;;12.95;5.32;;;2.50;83.50;;;;;;5053565;28;20021;-68
2021/01/16 09:15:25;;;;;;;13.23;4.45;;;2.50;82.70;;;;;;5053279;28;20044;-71
2021/01/16 09:18:13;;;;;;;13.43;6.47;;;2.60;83.40;;;;;;5072772;28;20036;-70
2021/01/16 09:20:43;;;;;;;12.20;5.65;;;2.80;82.90;;;;;;5073187;28;20413;-71
2021/01/16 09:23:24;;;;;;;7.70;4.95;;;2.70;82.70;;;;;;5072917;28;20032;-70
2021/01/16 09:25:52;;;;;;;9.98;5.60;;;2.80;81.40;;;;;;5073008;28;20032;-71
2021/01/16 09:28:41;;;;;;;10.80;5.32;;;2.70;81.30;;;;;;5072729;28;20029;-74
2021/01/16 09:31:16;;;;;;;11.63;5.65;;;2.70;81.30;;;;;;5071763;28;20048;-75
2021/01/16 09:33:46;;;;;;;11.07;5.50;;;2.80;81.10;;;;;;5072666;28;20032;-76
2021/01/16 09:36:12;;;;;;;10.10;5.28;;;2.80;81.40;;;;;;5074739;28;20029;-75
2021/01/16 09:38:41;;;;;;;11.50;5.60;;;2.80;81.50;;;;;;5071769;28;20045;-74
2021/01/16 09:41:07;;;;;;;9.85;5.38;;;2.80;81.70;;;;;;5072825;28;20037;-74
2021/01/16 09:43:41;;;;;;;13.45;5.32;;;2.90;82.80;;;;;;5072256;28;20035;-87
2021/01/16 09:46:07;;;;;;;17.35;6.35;;;2.90;82.40;;;;;;5080678;28;20036;-82
2021/01/16 09:48:41;;;;;;;13.18;5.90;;;2.80;82.20;;;;;;5074439;28;20017;-82
2021/01/16 09:51:12;;;;;;;10.85;5.35;;;2.70;82.60;;;;;;5072974;28;20400;-72
2021/01/16 09:53:39;;;;;;;12.45;5.90;;;2.90;82.60;;;;;;5072318;28;20411;-71
2021/01/16 09:56:05;;;;;;;10.15;5.70;;;2.90;82.60;;;;;;5072601;28;20115;-73
2021/01/16 09:58:36;;;;;;;11.10;5.72;;;2.70;82.10;;;;;;5072068;28;20094;-73
2021/01/16 10:01:20;;;;;;;12.80;5.72;;;2.70;82.40;;;;;;5072595;28;20032;-79
2021/01/16 10:03:47;;;;;;;11.52;5.88;;;2.90;82.50;;;;;;5072773;28;20154;-72
2021/01/16 10:06:17;;;;;;;10.87;5.47;;;3.00;82.20;;;;;;5074191;28;20033;-72
2021/01/16 10:08:43;;;;;;;14.43;5.63;;;3.10;81.30;;;;;;5072730;28;20032;-73
2021/01/16 10:11:10;;;;;;;17.83;5.78;;;3.20;81.00;;;;;;5070868;28;20105;-74
2021/01/16 10:13:38;;;;;;;9.38;4.95;;;3.20;80.20;;;;;;5071679;28;20039;-70
2021/01/16 10:16:09;;;;;;;11.30;5.50;;;3.10;80.30;;;;;;5071754;28;20032;-71
2021/01/16 10:18:36;;;;;;;9.68;5.45;;;3.20;80.90;;;;;;5071987;28;20361;-71
2021/01/16 10:21:04;;;;;;;9.73;5.20;;;3.40;80.70;;;;;;5072521;28;20035;-71
2021/01/16 10:23:33;;;;;;;11.68;5.95;;;3.30;80.30;;;;;;5072187;28;20032;-72
2021/01/16 10:26:00;;;;;;;13.23;6.00;;;3.20;80.30;;;;;;5071884;28;20028;-71
2021/01/16 10:28:28;;;;;;;17.55;5.43;;;3.10;80.60;;;;;;5071158;28;20060;-82
2021/01/16 10:30:58;;;;;;;;;;;3.30;80.60;;;;;;5072251;28;20051;-78
2021/01/16 10:33:26;;;;;;;11.07;5.55;;;3.20;80.20;;;;;;5072523;28;19904;-78
2021/01/16 10:36:05;;;;;;;13.13;5.70;;;3.30;80.20;;;;;;5070754;28;20052;-75
2021/01/16 10:38:40;;;;;;;12.35;5.50;;;3.20;80.40;;;;;;5070693;28;20049;-73
2021/01/16 10:41:11;;;;;;;11.80;6.13;;;3.20;80.50;;;;;;5071836;28;20041;-74
2021/01/16 10:43:37;;;;;;;10.90;5.45;;;3.30;80.90;;;;;;5070681;28;20024;-73
2021/01/16 10:46:08;;;;;;;12.10;5.63;;;3.30;81.00;;;;;;5065884;28;20033;-73
2021/01/16 10:48:38;;;;;;;13.60;6.53;;;3.30;81.40;;;;;;5051018;28;20025;-73
2021/01/16 10:51:06;;;;;;;13.50;6.03;;;3.50;81.30;;;;;;5073273;28;20021;-73
2021/01/16 10:53:36;;;;;;;14.00;6.10;;;3.40;81.20;;;;;;5070978;28;20028;-73
2021/01/16 10:56:26;;;;;;;12.45;5.50;;;3.40;81.40;;;;;;5071063;28;20044;-72
2021/01/16 10:59:10;;;;;;;12.80;5.95;;;3.40;81.70;;;;;;5078665;28;20048;-71
2021/01/16 11:01:45;;;;;;;12.45;6.00;;;3.30;83.30;;;;;;5062372;28;20029;-69
2021/01/16 11:04:19;;;;;;;15.13;5.93;;;3.30;83.30;;;;;;5051247;28;20052;-70
2021/01/16 11:07:02;;;;;;;10.60;5.43;;;3.30;83.60;;;;;;5050282;28;20410;-69
2021/01/16 11:09:33;;;;;;;13.60;6.35;;;3.30;82.80;;;;;;5052034;28;20043;-69
2021/01/16 11:12:06;;;;;;;14.85;6.50;;;3.50;82.80;;;;;;5051795;28;20516;-69
2021/01/16 11:14:33;;;;;;;14.98;5.78;;;3.60;83.50;;;;;;5051340;28;20099;-69
2021/01/16 11:16:59;;;;;;;11.20;5.85;;;3.40;82.70;;;;;;5051263;28;20057;-70
2021/01/16 11:19:31;;;;;;;9.95;5.03;;;3.50;83.00;;;;;;5051013;28;20036;-69
2021/01/16 11:22:04;;;;;;;12.63;6.05;;;3.60;82.00;;;;;;5055002;28;20099;-70
2021/01/16 11:24:36;;;;;;;10.20;5.50;;;3.70;81.80;;;;;;5070943;28;20040;-69
2021/01/16 11:27:09;;;;;;;10.85;5.55;;;3.70;81.20;;;;;;5072705;28;20511;-70
2021/01/16 11:29:42;;;;;;;10.35;5.78;;;3.70;81.40;;;;;;4986612;28;20053;-68
2021/01/16 11:32:17;;;;;;;13.15;6.20;;;3.60;82.60;;;;;;5079612;28;20517;-69
2021/01/16 11:35:06;;;;;;;17.38;6.53;;;3.60;82.00;;;;;;5070903;28;20040;-68
2021/01/16 11:37:47;;;;;;;12.35;6.03;;;3.70;82.00;;;;;;5070064;28;20056;-69
2021/01/16 11:40:36;;;;;;;12.02;6.53;;;3.80;82.30;;;;;;5071362;28;20051;-69
2021/01/16 11:43:08;;;;;;;10.38;5.57;;;3.70;81.90;;;;;;5071086;28;20424;-72
2021/01/16 11:45:35;;;;;;;11.77;5.60;;;3.80;82.60;;;;;;5070991;28;20128;-69
2021/01/16 11:48:02;;;;;;;12.15;6.00;;;3.80;82.30;;;;;;5072327;28;20481;-69
2021/01/16 11:50:32;;;;;;;9.63;5.38;;;3.80;82.50;;;;;;5070951;28;20037;-68
2021/01/16 11:53:09;;;;;;;11.15;5.65;;;3.80;82.50;;;;;;5071058;28;20060;-69
2021/01/16 11:55:35;;;;;;;15.95;6.28;;;3.90;82.70;;;;;;5070886;28;20102;-68
2021/01/16 11:58:01;;;;;;;10.90;5.40;;;3.80;82.90;;;;;;5070981;28;20033;-69
2021/01/16 12:00:27;;;;;;;11.60;5.72;;;3.90;82.80;;;;;;5071323;28;20404;-69
2021/01/16 12:02:55;;;;;;;12.63;5.85;;;4.10;83.40;;;;;;5071270;28;20047;-68
2021/01/16 12:05:22;;;;;;;13.95;6.35;;;4.00;83.50;;;;;;5070923;28;20119;-72
2021/01/16 12:07:49;;;;;;;14.02;6.80;;;4.10;82.90;;;;;;5073275;28;20064;-70
2021/01/16 12:10:19;;;;;;;13.45;5.97;;;3.90;82.40;;;;;;5073694;28;20036;-69
2021/01/16 12:12:45;;;;;;;12.73;5.85;;;3.90;82.50;;;;;;5073377;28;20091;-69
2021/01/16 12:15:21;;;;;;;15.43;6.57;;;3.80;82.40;;;;;;5075808;28;20514;-70
2021/01/16 12:17:50;;;;;;;11.38;6.20;;;3.80;82.30;;;;;;5073339;28;20051;-70
2021/01/16 12:20:17;;;;;;;14.02;6.43;;;3.80;82.90;;;;;;5074400;28;20458;-71
2021/01/16 12:22:45;;;;;;;11.07;5.85;;;3.80;82.80;;;;;;5074386;28;20123;-68
2021/01/16 12:25:13;;;;;;;13.52;5.75;;;3.70;82.90;;;;;;5074431;28;20029;-68
2021/01/16 12:27:59;;;;;;;16.05;7.70;;;3.70;83.20;;;;;;5072628;28;20028;-70
2021/01/16 12:30:34;;;;;;;10.93;5.93;;;3.80;83.50;;;;;;5075497;28;20039;-78
2021/01/16 12:33:00;;;;;;;12.48;6.40;;;3.90;83.40;;;;;;5074044;28;20047;-69
2021/01/16 12:35:26;;;;;;;15.45;6.35;;;4.00;83.80;;;;;;5073852;28;20036;-68
2021/01/16 12:37:52;;;;;;;11.77;6.68;;;3.90;83.70;;;;;;5072857;28;20136;-68
2021/01/16 12:40:29;;;;;;;13.50;7.32;;;3.90;84.00;;;;;;5074224;28;20124;-70
2021/01/16 12:42:54;;;;;;;15.93;7.55;;;3.90;84.40;;;;;;5074283;28;20098;-76
2021/01/16 12:45:22;;;;;;;14.18;7.78;;;3.70;84.80;;;;;;5075350;28;20373;-70
2021/01/16 12:47:52;;;;;;;17.05;8.07;;;3.70;85.20;;;;;;5073841;28;20040;-71
2021/01/16 12:50:21;;;;;;;16.92;7.28;;;3.70;84.90;;;;;;5072739;28;20036;-73
2021/01/16 12:52:53;;;;;;;14.23;7.60;;;3.80;84.90;;;;;;5073689;28;20596;-72
2021/01/16 12:55:23;;;;;;;16.80;8.43;;;3.90;85.30;;;;;;5073489;28;20071;-70
2021/01/16 12:57:54;;;;;;;19.08;8.10;;;4.00;85.10;;;;;;5073719;28;20058;-71
2021/01/16 13:00:23;;;;;;;16.98;7.95;;;3.80;86.20;;;;;;5074876;28;20031;-73
2021/01/16 13:02:55;;;;;;;18.15;9.18;;;3.70;86.30;;;;;;5073580;28;20460;-75
2021/01/16 13:05:28;;;;;;;18.15;8.65;;;3.80;87.10;;;;;;5072107;28;20044;-73
2021/01/16 13:08:01;;;;;;;20.80;9.05;;;3.90;87.10;;;;;;5073316;28;20047;-72